Time;durP1;ratioP1;P1;durP2;ratioP2;P2;SDS_P1;SDS_P2;PMS_P1;PMS_P2;Temp;Humidity;BMP_temperature;BMP_pressure;BME280_temperature;BME280_humidity;BME280_pressure;Samples;Min_cycle;Max_cycle;Signal;HPM_P1;HPM_P2
2024/01/30 00:00:16;;;;;;;5.22;3.80;;;;;;;23.25;100.00;56616.03;5051699;28;20646;-76
2024/01/30 00:02:43;;;;;;;4.53;3.42;;;;;;;23.26;100.00;56616.03;5054881;28;20301;-81
2024/01/30 00:05:09;;;;;;;4.50;4.07;;;;;;;23.26;100.00;56616.03;5040342;28;20211;-77
2024/01/30 00:07:36;;;;;;;4.30;3.85;;;;;;;23.25;100.00;56616.03;5010186;28;20565;-77
2024/01/30 00:10:06;;;;;;;4.38;3.47;;;;;;;23.25;100.00;56616.03;5008662;28;20211;-76
2024/01/30 00:12:32;;;;;;;3.90;3.55;;;;;;;23.25;100.00;56616.03;5012916;28;20211;-75
2024/01/30 00:14:59;;;;;;;3.72;3.15;;;;;;;23.26;100.00;56616.03;5009541;28;20693;-75
2024/01/30 00:17:26;;;;;;;4.00;3.67;;;;;;;23.41;100.00;56616.03;5009617;28;20318;-74
2024/01/30 00:19:52;;;;;;;3.88;3.55;;;;;;;23.26;100.00;56616.03;5009370;28;20215;-76
2024/01/30 00:22:19;;;;;;;4.00;3.60;;;;;;;23.26;100.00;56616.03;5009038;28;20231;-84
2024/01/30 00:24:46;;;;;;;4.85;3.60;;;;;;;23.25;100.00;56616.03;5008713;28;20211;-74
2024/01/30 00:27:14;;;;;;;7.50;3.67;;;;;;;23.25;100.00;56616.03;5006608;28;20203;-77
2024/01/30 00:29:40;;;;;;;4.05;3.75;;;;;;;23.25;100.00;56616.03;5008660;28;20644;-86
2024/01/30 00:32:07;;;;;;;3.45;3.25;;;;;;;23.26;100.00;56616.03;5009237;28;20207;-76
2024/01/30 00:34:34;;;;;;;5.65;4.10;;;;;;;-142.91;100.00;56616.03;5020680;28;20306;-77
2024/01/30 00:37:00;;;;;;;4.10;3.15;;;;;;;;;;5057264;28;20222;-76
2024/01/30 00:39:27;;;;;;;3.67;3.35;;;;;;;;;;5053181;28;20288;-77
2024/01/30 00:41:54;;;;;;;3.10;2.90;;;;;;;;;;5055396;28;20286;-78
2024/01/30 00:44:22;;;;;;;6.20;4.35;;;;;;;;;;5048438;28;20207;-78
2024/01/30 00:46:48;;;;;;;3.53;3.17;;;;;;;;;;5053845;28;20661;-77
2024/01/30 00:49:15;;;;;;;4.68;3.42;;;;;;;;;;5054596;28;20652;-79
2024/01/30 00:51:41;;;;;;;4.60;3.78;;;;;;;23.25;100.00;56616.03;5050986;28;20226;-76
2024/01/30 00:54:08;;;;;;;4.65;3.40;;;;;;;23.25;100.00;56616.03;5053729;28;20281;-76
2024/01/30 00:56:34;;;;;;;3.78;3.45;;;;;;;;;;5051411;28;20309;-77
2024/01/30 00:59:01;;;;;;;4.95;2.83;;;;;;;23.25;100.00;56616.03;5049050;28;20206;-75
2024/01/30 01:01:29;;;;;;;5.40;3.47;;;;;;;;;;5052099;28;20313;-79
2024/01/30 01:03:55;;;;;;;3.50;3.20;;;;;;;-142.91;100.00;56616.03;5050564;28;20341;-77
2024/01/30 01:06:22;;;;;;;3.70;3.40;;;;;;;;;;5055078;28;20309;-77
2024/01/30 01:08:48;;;;;;;4.10;3.53;;;;;;;23.25;100.00;56616.03;5054665;28;20282;-77
2024/01/30 01:11:15;;;;;;;5.45;3.53;;;;;;;;;;5052181;28;20293;-77
2024/01/30 01:13:41;;;;;;;3.30;3.00;;;;;;;;;;5053094;28;20301;-77
2024/01/30 01:16:08;;;;;;;3.50;3.20;;;;;;;23.25;100.00;56616.03;5049838;28;20293;-75
2024/01/30 01:18:35;;;;;;;4.15;3.47;;;;;;;;;;5052555;28;20665;-77
2024/01/30 01:21:02;;;;;;;3.83;3.33;;;;;;;;;;5055045;28;20313;-78
2024/01/30 01:23:28;;;;;;;6.03;2.83;;;;;;;;;;5057211;28;20657;-78
2024/01/30 01:25:55;;;;;;;4.72;3.08;;;;;;;23.26;100.00;56616.03;5054998;28;20297;-83
2024/01/30 01:28:22;;;;;;;7.97;3.40;;;;;;;;;;5050989;28;20222;-80
2024/01/30 01:30:48;;;;;;;3.55;3.17;;;;;;;;;;5057874;28;20198;-80
2024/01/30 01:33:15;;;;;;;3.50;3.20;;;;;;;23.25;100.00;56616.03;5052890;28;20195;-80
2024/01/30 01:35:43;;;;;;;3.75;3.45;;;;;;;23.25;100.00;56616.03;5054545;28;20291;-81
2024/01/30 01:38:09;;;;;;;3.38;3.08;;;;;;;;;;5054518;28;20771;-77
2024/01/30 01:40:35;;;;;;;2.83;2.63;;;;;;;;;;5054241;28;20284;-76
2024/01/30 01:43:03;;;;;;;5.40;3.40;;;;;;;;;;5057007;28;20296;-77
2024/01/30 01:45:30;;;;;;;3.75;3.45;;;;;;;;;;5052842;28;20302;-77
2024/01/30 01:47:56;;;;;;;3.20;2.80;;;;;;;;;;5055262;28;20759;-77
2024/01/30 01:50:23;;;;;;;3.58;3.13;;;;;;;;;;5056187;28;20233;-76
2024/01/30 01:52:53;;;;;;;2.47;2.28;;;;;;;23.25;100.00;56616.03;5054707;28;20286;-77
2024/01/30 01:55:24;;;;;;;3.53;3.22;;;;;;;-142.91;100.00;56616.03;5052040;28;20233;-76
2024/01/30 01:57:51;;;;;;;3.60;3.30;;;;;;;23.25;100.00;56616.03;5055778;28;20223;-79
2024/01/30 02:00:17;;;;;;;3.00;2.75;;;;;;;;;;5052169;28;20298;-76
2024/01/30 02:02:44;;;;;;;4.00;3.28;;;;;;;;;;5053230;28;20199;-79
2024/01/30 02:05:11;;;;;;;3.92;3.42;;;;;;;;;;5052383;28;20286;-77
2024/01/30 02:07:37;;;;;;;4.18;3.40;;;;;;;;;;5054721;28;20261;-78
2024/01/30 02:10:06;;;;;;;4.22;3.75;;;;;;;;;;5056536;28;20736;-77
2024/01/30 02:12:32;;;;;;;4.57;3.88;;;;;;;23.26;100.00;56616.03;5053542;28;20286;-78
2024/01/30 02:14:59;;;;;;;4.05;3.75;;;;;;;23.25;100.00;56616.03;5053875;28;20723;-75
2024/01/30 02:17:25;;;;;;;4.53;4.03;;;;;;;;;;5057686;28;20322;-76
2024/01/30 02:19:53;;;;;;;4.25;3.80;;;;;;;23.25;100.00;56616.03;5053062;28;20669;-77
2024/01/30 02:22:21;;;;;;;4.45;4.15;;;;;;;23.26;100.00;56616.03;5053727;28;21324;-79
2024/01/30 02:24:47;;;;;;;3.53;3.22;;;;;;;;;;5054408;28;20325;-79
2024/01/30 02:27:14;;;;;;;3.50;3.20;;;;;;;;;;5054581;28;20635;-79
2024/01/30 02:29:40;;;;;;;4.50;3.30;;;;;;;;;;5055894;28;20298;-77
2024/01/30 02:32:07;;;;;;;3.60;3.30;;;;;;;;;;5053775;28;20289;-74
2024/01/30 02:34:34;;;;;;;4.20;3.70;;;;;;;23.25;100.00;56616.03;5057889;28;20203;-78
2024/01/30 02:37:01;;;;;;;4.35;3.42;;;;;;;23.26;100.00;56616.03;5055352;28;20333;-77
2024/01/30 02:39:28;;;;;;;4.47;4.07;;;;;;;;;;5053752;28;20191;-77
2024/01/30 02:41:55;;;;;;;6.00;3.58;;;;;;;;;;5054966;28;20286;-77
2024/01/30 02:44:21;;;;;;;3.85;3.33;;;;;;;;;;5053722;28;20614;-77
2024/01/30 02:46:48;;;;;;;3.63;3.35;;;;;;;23.25;100.00;56616.03;5053994;28;20211;-75
2024/01/30 02:49:14;;;;;;;4.57;4.22;;;;;;;;;;5052948;28;20302;-77
2024/01/30 02:51:41;;;;;;;3.35;3.08;;;;;;;23.26;100.00;56616.03;5057230;28;20294;-78
2024/01/30 02:54:07;;;;;;;4.40;4.10;;;;;;;;;;5054247;28;20229;-76
2024/01/30 02:56:35;;;;;;;3.42;3.13;;;;;;;;;;5054776;28;20288;-77
2024/01/30 02:59:02;;;;;;;4.72;3.60;;;;;;;;;;5057653;28;20290;-76
2024/01/30 03:01:28;;;;;;;4.28;3.58;;;;;;;23.25;100.00;56616.03;5049357;28;20226;-78
2024/01/30 03:03:55;;;;;;;4.05;3.75;;;;;;;-142.91;100.00;56616.03;5049772;28;20286;-76
2024/01/30 03:06:22;;;;;;;3.67;3.38;;;;;;;23.25;100.00;56616.03;5049849;28;20324;-76
2024/01/30 03:08:49;;;;;;;3.08;2.88;;;;;;;;;;5053378;28;20259;-80
2024/01/30 03:11:16;;;;;;;3.63;3.13;;;;;;;23.25;100.00;56616.03;5054050;28;20198;-75
2024/01/30 03:13:44;;;;;;;3.42;3.17;;;;;;;-142.91;100.00;56616.03;5058889;28;20277;-77
2024/01/30 03:16:11;;;;;;;4.05;3.67;;;;;;;;;;5057051;28;20736;-76
2024/01/30 03:18:37;;;;;;;3.65;3.28;;;;;;;;;;5053960;28;20297;-76
2024/01/30 03:21:04;;;;;;;3.83;3.55;;;;;;;23.25;100.00;56616.03;5056066;28;20650;-76
2024/01/30 03:23:32;;;;;;;3.20;2.90;;;;;;;23.25;100.00;56616.03;5054320;28;20283;-76
2024/01/30 03:25:58;;;;;;;2.60;2.40;;;;;;;;;;5049834;28;20200;-77
2024/01/30 03:28:25;;;;;;;3.97;3.67;;;;;;;;;;5053526;28;20290;-77
2024/01/30 03:30:53;;;;;;;3.35;2.72;;;;;;;-142.91;100.00;56616.03;5061503;28;20278;-75
2024/01/30 03:33:19;;;;;;;2.45;2.03;;;;;;;23.25;100.00;56616.03;5061408;28;20778;-76
2024/01/30 03:35:46;;;;;;;2.92;2.55;;;;;;;23.25;100.00;56616.03;5057432;28;20286;-77
2024/01/30 03:38:12;;;;;;;2.33;2.15;;;;;;;;;;5055117;28;20769;-75
2024/01/30 03:40:39;;;;;;;2.80;2.60;;;;;;;23.25;100.00;56616.03;5059200;28;20373;-76
2024/01/30 03:43:06;;;;;;;3.92;2.15;;;;;;;;;;5062545;28;20287;-77
2024/01/30 03:45:32;;;;;;;2.55;2.35;;;;;;;23.25;100.00;56616.03;5061789;28;20202;-77
2024/01/30 03:48:00;;;;;;;3.30;2.65;;;;;;;23.25;100.00;56616.03;5061175;28;20301;-76
2024/01/30 03:50:27;;;;;;;3.33;2.58;;;;;;;;;;5059131;28;20329;-78
2024/01/30 03:52:54;;;;;;;2.10;2.00;;;;;;;23.25;100.00;56616.03;5061292;28;20198;-81
2024/01/30 03:55:21;;;;;;;3.22;2.92;;;;;;;23.26;100.00;56616.03;5057995;28;20641;-77
2024/01/30 03:57:47;;;;;;;2.10;2.00;;;;;;;;;;5060759;28;20313;-76
2024/01/30 04:00:15;;;;;;;2.65;1.67;;;;;;;;;;5057541;28;20285;-75
2024/01/30 04:02:41;;;;;;;2.30;2.17;;;;;;;;;;5058194;28;20751;-75
2024/01/30 04:05:09;;;;;;;2.10;2.00;;;;;;;;;;5055872;28;20199;-76
2024/01/30 04:07:36;;;;;;;3.35;2.67;;;;;;;;;;5055141;28;20685;-75
2024/01/30 04:10:05;;;;;;;1.80;1.70;;;;;;;23.26;100.00;56616.03;5055635;28;20289;-78
2024/01/30 04:12:31;;;;;;;3.20;2.90;;;;;;;;;;5058475;28;20226;-77
2024/01/30 04:14:58;;;;;;;2.80;2.60;;;;;;;;;;5054315;28;20293;-75
2024/01/30 04:17:24;;;;;;;3.45;2.95;;;;;;;;;;5055772;28;20313;-77
2024/01/30 04:19:51;;;;;;;2.00;1.85;;;;;;;;;;5056680;28;20290;-77
2024/01/30 04:22:19;;;;;;;6.80;3.17;;;;;;;23.25;100.00;56616.03;5056372;28;20310;-79
2024/01/30 04:24:45;;;;;;;2.78;2.55;;;;;;;23.25;100.00;56616.03;5055617;28;20305;-78
2024/01/30 04:27:12;;;;;;;2.65;2.42;;;;;;;;;;5055569;28;20298;-76
2024/01/30 04:29:38;;;;;;;3.03;2.70;;;;;;;;;;5055093;28;20203;-75
2024/01/30 04:32:05;;;;;;;4.00;3.13;;;;;;;23.25;100.00;56616.03;5053833;28;20290;-77
2024/01/30 04:34:32;;;;;;;3.28;2.97;;;;;;;;;;5059396;28;20205;-77
2024/01/30 04:36:58;;;;;;;9.60;3.25;;;;;;;;;;5056330;28;20285;-75
2024/01/30 04:39:26;;;;;;;3.00;2.80;;;;;;;23.26;100.00;56616.03;5056531;28;20305;-76
2024/01/30 04:41:53;;;;;;;3.85;2.53;;;;;;;23.25;100.00;56616.03;5055053;28;20303;-77
2024/01/30 04:44:19;;;;;;;4.65;2.53;;;;;;;23.25;100.00;56616.03;5060165;28;20729;-77
2024/01/30 04:46:46;;;;;;;5.70;3.00;;;;;;;;;;5056651;28;20286;-78
2024/01/30 04:49:12;;;;;;;2.97;2.78;;;;;;;;;;5056717;28;20293;-76
2024/01/30 04:51:39;;;;;;;2.72;2.50;;;;;;;;;;5057831;28;20753;-75
2024/01/30 04:54:05;;;;;;;2.97;2.67;;;;;;;;;;5057006;28;20230;-77
2024/01/30 04:56:33;;;;;;;3.30;3.00;;;;;;;23.25;100.00;56616.03;5057662;28;20696;-78
2024/01/30 04:59:00;;;;;;;3.35;2.33;;;;;;;23.29;100.00;56616.03;5055464;28;20342;-78
2024/01/30 05:01:26;;;;;;;3.47;3.17;;;;;;;;;;5054696;28;20337;-78
2024/01/30 05:03:53;;;;;;;3.35;3.03;;;;;;;;;;5058702;28;20658;-79
2024/01/30 05:06:25;;;;;;;3.53;2.95;;;;;;;23.27;100.00;56616.03;5054616;28;20239;-78
2024/01/30 05:08:51;;;;;;;3.90;3.58;;;;;;;;;;5056263;28;20230;-76
2024/01/30 05:11:18;;;;;;;5.30;3.35;;;;;;;23.25;100.00;56616.03;5058441;28;20289;-78
2024/01/30 05:13:46;;;;;;;3.83;2.90;;;;;;;23.26;100.00;56616.03;5055253;28;20290;-79
2024/01/30 05:16:13;;;;;;;4.68;3.55;;;;;;;23.26;100.00;56616.03;5055102;28;20297;-79
2024/01/30 05:18:39;;;;;;;5.05;3.17;;;;;;;;;;5056085;28;20313;-78
2024/01/30 05:21:06;;;;;;;10.85;3.45;;;;;;;33.65;100.00;56616.03;5052440;28;20301;-79
2024/01/30 05:23:33;;;;;;;7.35;3.45;;;;;;;;;;5050212;28;20290;-76
2024/01/30 05:26:00;;;;;;;5.55;3.70;;;;;;;;;;5051704;28;20286;-77
2024/01/30 05:28:27;;;;;;;4.40;4.00;;;;;;;;;;5059005;28;20207;-78
2024/01/30 05:30:55;;;;;;;6.10;4.05;;;;;;;23.25;100.00;56616.03;5054146;28;20286;-78
2024/01/30 05:33:21;;;;;;;4.05;3.60;;;;;;;23.26;100.00;56616.03;5060730;28;20719;-80
2024/01/30 05:35:48;;;;;;;4.10;3.70;;;;;;;-142.91;100.00;56616.03;5059367;28;20289;-77
2024/01/30 05:38:16;;;;;;;4.63;3.45;;;;;;;23.26;100.00;56616.03;5057322;28;20672;-77
2024/01/30 05:40:42;;;;;;;4.18;3.78;;;;;;;23.26;100.00;56616.03;5058795;28;20301;-79
2024/01/30 05:43:09;;;;;;;4.35;3.85;;;;;;;23.26;100.00;56616.03;5055301;28;20286;-78
2024/01/30 05:45:36;;;;;;;6.15;4.22;;;;;;;;;;5057464;28;20680;-77
2024/01/30 05:48:04;;;;;;;4.13;3.83;;;;;;;23.25;100.00;56616.03;5056292;28;20203;-76
2024/01/30 05:50:31;;;;;;;8.40;4.65;;;;;;;23.25;100.00;56616.03;5058073;28;20263;-78
2024/01/30 05:52:57;;;;;;;6.63;4.43;;;;;;;;;;5058925;28;20302;-77
2024/01/30 05:55:24;;;;;;;7.45;3.83;;;;;;;;;;5055191;28;20317;-76
2024/01/30 05:57:50;;;;;;;10.98;4.53;;;;;;;;;;5059547;28;20230;-78
2024/01/30 06:00:17;;;;;;;4.20;3.75;;;;;;;;;;5052055;28;20225;-78
2024/01/30 06:02:44;;;;;;;4.70;4.20;;;;;;;23.25;100.00;56616.03;5051567;28;20289;-77
2024/01/30 06:05:12;;;;;;;3.67;3.42;;;;;;;;;;5054890;28;20664;-76
2024/01/30 06:07:38;;;;;;;4.53;4.07;;;;;;;;;;5056615;28;20309;-83
2024/01/30 06:10:05;;;;;;;9.57;3.65;;;;;;;;;;5054670;28;20237;-79
2024/01/30 06:12:31;;;;;;;3.25;3.05;;;;;;;;;;5052600;28;20294;-82
2024/01/30 06:14:58;;;;;;;3.10;2.90;;;;;;;;;;5050248;28;21849;-80
2024/01/30 06:17:24;;;;;;;2.60;2.40;;;;;;;23.25;100.00;56616.03;5052131;28;20199;-79
2024/01/30 06:19:51;;;;;;;4.93;3.28;;;;;;;-142.91;100.00;56616.03;5048888;28;20354;-79
2024/01/30 06:22:19;;;;;;;6.93;2.25;;;;;;;-142.91;100.00;56616.03;5050123;28;20325;-81
2024/01/30 06:24:47;;;;;;;3.20;2.33;;;;;;;-142.91;100.00;56616.03;5053216;28;20597;-79
2024/01/30 06:27:14;;;;;;;7.57;3.17;;;;;;;;;;5050144;28;20210;-77
2024/01/30 06:29:40;;;;;;;4.50;3.97;;;;;;;;;;5055505;28;21504;-76
2024/01/30 06:32:07;;;;;;;7.22;4.18;;;;;;;;;;5054057;28;20295;-77
2024/01/30 06:34:33;;;;;;;6.82;4.22;;;;;;;;;;5053618;28;20294;-77
2024/01/30 06:37:00;;;;;;;11.52;5.20;;;;;;;-142.91;100.00;56616.03;5054128;28;20779;-77
2024/01/30 06:39:28;;;;;;;8.32;4.88;;;;;;;;;;5055880;28;20310;-79
2024/01/30 06:41:54;;;;;;;8.20;5.32;;;;;;;;;;5054837;28;20656;-79
2024/01/30 06:44:21;;;;;;;5.00;3.90;;;;;;;;;;5059711;28;20641;-77
2024/01/30 06:46:47;;;;;;;13.88;4.13;;;;;;;;;;5057085;28;20291;-78
2024/01/30 06:49:14;;;;;;;6.13;4.35;;;;;;;;;;5053008;28;20293;-77
2024/01/30 06:51:40;;;;;;;5.95;4.40;;;;;;;-142.91;100.00;56616.03;5057479;28;20739;-77
2024/01/30 06:54:07;;;;;;;5.25;2.90;;;;;;;;;;5056027;28;20285;-75
2024/01/30 06:56:35;;;;;;;4.18;2.70;;;;;;;;;;5055254;28;20298;-75
2024/01/30 06:59:01;;;;;;;5.97;2.60;;;;;;;;;;5052949;28;20229;-75
2024/01/30 07:01:28;;;;;;;8.93;3.03;;;;;;;;;;5052219;28;20310;-77
2024/01/30 07:03:55;;;;;;;2.65;2.50;;;;;;;;;;5049945;28;20285;-77
2024/01/30 07:06:22;;;;;;;4.50;2.85;;;;;;;;;;5049407;28;20312;-76
2024/01/30 07:08:48;;;;;;;3.75;3.45;;;;;;;;;;5049362;28;20199;-76
2024/01/30 07:11:19;;;;;;;3.25;3.05;;;;;;;;;;5047718;28;20739;-77
2024/01/30 07:13:48;;;;;;;6.18;3.88;;;;;;;;;;5048175;28;20293;-77
2024/01/30 07:16:14;;;;;;;5.05;3.47;;;;;;;;;;5047356;28;20698;-76
2024/01/30 07:18:40;;;;;;;4.28;3.58;;;;;;;;;;5048009;28;20219;-76
2024/01/30 07:21:07;;;;;;;3.65;3.35;;;;;;;;;;5045588;28;20305;-76
2024/01/30 07:23:34;;;;;;;3.30;2.60;;;;;;;;;;5049112;28;20286;-77
2024/01/30 07:26:01;;;;;;;4.55;3.45;;;;;;;-142.91;100.00;56616.03;5048074;28;20214;-76
2024/01/30 07:28:27;;;;;;;3.08;2.85;;;;;;;;;;5047101;28;20286;-77
2024/01/30 07:30:55;;;;;;;3.08;2.85;;;;;;;;;;5046617;28;20919;-76
2024/01/30 07:33:21;;;;;;;5.47;3.45;;;;;;;;;;5046386;28;20290;-79
2024/01/30 07:35:48;;;;;;;3.65;2.90;;;;;;;;;;5048479;28;20318;-75
2024/01/30 07:38:14;;;;;;;4.95;2.65;;;;;;;;;;5049659;28;20234;-76
2024/01/30 07:40:40;;;;;;;6.97;3.17;;;;;;;;;;5046430;28;20282;-77
2024/01/30 07:43:08;;;;;;;2.88;2.60;;;;;;;;;;5047400;28;20714;-78
2024/01/30 07:45:34;;;;;;;3.33;3.03;;;;;;;;;;5047254;28;20199;-77
2024/01/30 07:48:02;;;;;;;2.70;2.42;;;;;;;;;;5044836;28;20289;-72
2024/01/30 07:50:28;;;;;;;2.85;2.58;;;;;;;;;;5014477;28;20314;-72
2024/01/30 07:52:56;;;;;;;4.53;3.05;;;;;;;;;;5044566;28;20293;-71
2024/01/30 07:55:24;;;;;;;3.47;3.17;;;;;;;-142.91;100.00;56616.03;5047445;28;20634;-73
2024/01/30 07:57:53;;;;;;;6.72;2.67;;;;;;;-142.91;100.00;56616.03;5048462;28;20293;-76
2024/01/30 08:00:19;;;;;;;3.05;2.85;;;;;;;;;;5045930;28;20219;-78
2024/01/30 08:02:46;;;;;;;3.78;3.35;;;;;;;-142.91;100.00;56616.03;5046523;28;20218;-77
2024/01/30 08:05:15;;;;;;;7.80;3.08;;;;;;;-142.91;100.00;56616.03;5046425;28;20648;-74
2024/01/30 08:07:41;;;;;;;11.15;3.25;;;;;;;-142.91;100.00;56616.03;5044879;28;20323;-75
2024/01/30 08:10:08;;;;;;;6.85;3.13;;;;;;;;;;5050901;28;20226;-74
2024/01/30 08:12:35;;;;;;;4.13;2.97;;;;;;;;;;5044242;28;20716;-72
2024/01/30 08:15:01;;;;;;;2.92;2.72;;;;;;;;;;5048351;28;20329;-72
2024/01/30 08:17:27;;;;;;;4.03;3.63;;;;;;;;;;5050849;28;20704;-72
2024/01/30 08:19:54;;;;;;;3.53;3.22;;;;;;;;;;5049565;28;21056;-73
2024/01/30 08:22:21;;;;;;;4.15;3.08;;;;;;;;;;5052720;28;20254;-74
2024/01/30 08:24:48;;;;;;;3.50;3.03;;;;;;;;;;5058632;28;20280;-73
2024/01/30 08:27:15;;;;;;;2.88;2.42;;;;;;;44.04;100.00;56616.03;5056985;28;20290;-78
2024/01/30 08:29:41;;;;;;;4.70;3.30;;;;;;;;;;5051272;28;20696;-75
2024/01/30 08:32:08;;;;;;;3.38;3.08;;;;;;;;;;5054024;28;20285;-79
2024/01/30 08:34:34;;;;;;;4.43;2.60;;;;;;;;;;5047367;28;20740;-76
2024/01/30 08:37:01;;;;;;;4.63;3.08;;;;;;;;;;5059122;28;20313;-78
2024/01/30 08:39:28;;;;;;;9.10;3.72;;;;;;;;;;5060918;28;20314;-77
2024/01/30 08:41:55;;;;;;;12.40;3.88;;;;;;;;;;5048402;28;20290;-75
2024/01/30 08:44:21;;;;;;;3.80;3.50;;;;;;;;;;5054926;28;20290;-76
2024/01/30 08:46:48;;;;;;;4.07;3.33;;;;;;;;;;5056557;28;20226;-77
2024/01/30 08:49:17;;;;;;;3.30;3.00;;;;;;;;;;5061067;28;20208;-76
2024/01/30 08:51:43;;;;;;;4.25;3.20;;;;;;;;;;5062228;28;20943;-77
2024/01/30 08:54:09;;;;;;;3.55;3.25;;;;;;;;;;5059961;28;20699;-73
2024/01/30 08:56:37;;;;;;;2.78;2.58;;;;;;;;;;5055956;28;20299;-76
2024/01/30 08:59:03;;;;;;;2.17;1.98;;;;;;;;;;5054459;28;20306;-76
2024/01/30 09:01:30;;;;;;;2.10;2.00;;;;;;;;;;5051597;28;20779;-76
2024/01/30 09:03:57;;;;;;;2.85;2.65;;;;;;;;;;5057142;28;20591;-79
2024/01/30 09:06:23;;;;;;;3.33;3.03;;;;;;;-142.91;100.00;56616.03;5056579;28;20313;-78
2024/01/30 09:08:50;;;;;;;3.33;2.45;;;;;;;;;;5048173;28;20207;-74
2024/01/30 09:11:16;;;;;;;3.13;2.80;;;;;;;;;;5056180;28;20245;-78
2024/01/30 09:13:44;;;;;;;4.70;3.90;;;;;;;;;;5060526;28;20285;-77
2024/01/30 09:16:10;;;;;;;3.60;3.30;;;;;;;;;;5058878;28;20314;-77
2024/01/30 09:18:37;;;;;;;5.70;3.38;;;;;;;;;;5054546;28;20293;-78
2024/01/30 09:21:03;;;;;;;6.22;2.88;;;;;;;;;;5057294;28;20692;-76
2024/01/30 09:23:30;;;;;;;3.78;3.15;;;;;;;;;;5054438;28;20297;-76
2024/01/30 09:25:56;;;;;;;3.05;2.58;;;;;;;;;;5058056;28;20302;-75
2024/01/30 09:28:22;;;;;;;2.90;2.70;;;;;;;;;;5052646;28;20297;-78
2024/01/30 09:30:50;;;;;;;4.93;3.97;;;;;;;;;;5059686;28;20217;-77
2024/01/30 09:33:17;;;;;;;3.22;2.90;;;;;;;;;;5059047;28;20293;-76
2024/01/30 09:35:43;;;;;;;3.70;2.38;;;;;;;;;;5055202;28;20538;-75
2024/01/30 09:38:10;;;;;;;3.15;2.95;;;;;;;;;;5058984;28;20293;-78
2024/01/30 09:40:37;;;;;;;2.13;2.03;;;;;;;;;;5048650;28;20269;-78
2024/01/30 09:43:04;;;;;;;2.58;2.38;;;;;;;;;;5052121;28;20256;-76
2024/01/30 09:45:31;;;;;;;9.02;2.83;;;;;;;-142.91;100.00;56616.03;5051031;28;20306;-75
2024/01/30 09:48:00;;;;;;;2.88;2.50;;;;;;;-142.91;100.00;56616.03;5053106;28;20282;-75
2024/01/30 09:50:27;;;;;;;2.45;2.25;;;;;;;;;;5056504;28;20282;-75
2024/01/30 09:52:59;;;;;;;2.85;2.35;;;;;;;189.72;100.00;76282.31;5053143;28;20285;-76
2024/01/30 09:55:25;;;;;;;3.03;2.75;;;;;;;;;;5054687;28;20285;-76
2024/01/30 09:57:52;;;;;;;3.00;2.70;;;;;;;;;;5059246;28;20282;-77
2024/01/30 10:00:19;;;;;;;2.58;2.30;;;;;;;;;;5054528;28;20761;-77
2024/01/30 10:02:45;;;;;;;2.67;2.25;;;;;;;;;;5062998;28;20221;-75
2024/01/30 10:05:16;;;;;;;3.15;2.35;;;;;;;;;;5060918;28;20657;-77
2024/01/30 10:07:50;;;;;;;4.70;2.08;;;;;;;;;;5058722;28;20226;-75
2024/01/30 10:10:17;;;;;;;2.42;2.22;;;;;;;;;;5060733;28;21520;-78
2024/01/30 10:12:43;;;;;;;2.20;2.10;;;;;;;-142.91;100.00;56616.03;5060747;28;20281;-76
2024/01/30 10:15:10;;;;;;;3.30;2.42;;;;;;;;;;5058994;28;20285;-75
2024/01/30 10:17:38;;;;;;;4.97;2.35;;;;;;;;;;5054119;28;20235;-76
2024/01/30 10:20:05;;;;;;;2.40;2.25;;;;;;;;;;5049684;28;20700;-75
2024/01/30 10:22:33;;;;;;;2.45;2.25;;;;;;;;;;5049821;28;20317;-75
2024/01/30 10:25:01;;;;;;;2.90;2.70;;;;;;;-142.91;100.00;56616.03;5052912;28;20290;-76
2024/01/30 10:27:29;;;;;;;3.42;2.70;;;;;;;-142.91;100.00;56616.03;5052743;28;20294;-76
2024/01/30 10:29:55;;;;;;;1.75;1.65;;;;;;;;;;5058400;28;20199;-77
2024/01/30 10:32:22;;;;;;;2.90;2.63;;;;;;;-142.91;100.00;56616.03;5059021;28;20298;-77
2024/01/30 10:34:49;;;;;;;2.42;2.22;;;;;;;;;;5060777;28;20584;-79
2024/01/30 10:37:16;;;;;;;1.58;1.48;;;;;;;;;;5057010;28;20305;-77
2024/01/30 10:39:44;;;;;;;4.97;2.03;;;;;;;;;;5053237;28;20604;-76
2024/01/30 10:42:12;;;;;;;2.17;2.05;;;;;;;;;;5049094;28;20306;-77
2024/01/30 10:44:43;;;;;;;2.63;2.42;;;;;;;;;;5046615;28;20290;-78
2024/01/30 10:47:13;;;;;;;2.80;2.50;;;;;;;;;;5046619;28;20295;-77
2024/01/30 10:49:40;;;;;;;2.17;1.65;;;;;;;;;;5046811;28;20585;-77
2024/01/30 10:52:08;;;;;;;4.47;2.15;;;;;;;23.25;100.00;56616.03;5046919;28;20290;-78
2024/01/30 10:54:35;;;;;;;2.25;1.80;;;;;;;;;;5042232;28;20286;-76
2024/01/30 10:57:04;;;;;;;2.53;1.70;;;;;;;;;;5048400;28;20323;-77
2024/01/30 10:59:31;;;;;;;5.75;2.05;;;;;;;;;;5046971;28;20297;-78
2024/01/30 11:01:58;;;;;;;2.85;2.00;;;;;;;;;;5045979;28;20199;-76
2024/01/30 11:04:25;;;;;;;1.60;1.50;;;;;;;;;;5048722;28;20624;-77
2024/01/30 11:06:52;;;;;;;1.25;1.25;;;;;;;-142.91;100.00;56616.03;5045525;28;20234;-76
2024/01/30 11:09:19;;;;;;;2.75;2.55;;;;;;;;;;5046343;28;20264;-77
2024/01/30 11:11:50;;;;;;;2.58;2.38;;;;;;;-142.91;100.00;56616.03;5045872;28;20203;-80
2024/01/30 11:14:23;;;;;;;2.08;1.98;;;;;;;;;;5045736;28;20199;-77
2024/01/30 11:16:50;;;;;;;2.20;1.80;;;;;;;;;;5046662;28;20306;-77
2024/01/30 11:19:16;;;;;;;1.80;1.70;;;;;;;;;;5042871;28;20291;-77
2024/01/30 11:21:42;;;;;;;1.88;1.77;;;;;;;;;;5044148;28;20772;-76
2024/01/30 11:24:09;;;;;;;3.30;1.67;;;;;;;-142.91;100.00;56616.03;5046257;28;20290;-79
2024/01/30 11:26:36;;;;;;;2.72;2.20;;;;;;;;;;5045946;28;20264;-76
2024/01/30 11:29:04;;;;;;;2.20;2.00;;;;;;;;;;5046036;28;20289;-75
2024/01/30 11:31:32;;;;;;;2.47;2.30;;;;;;;;;;5045281;28;20207;-76
2024/01/30 11:33:59;;;;;;;2.45;2.25;;;;;;;-142.91;100.00;56616.03;5043631;28;20297;-77
2024/01/30 11:36:26;;;;;;;2.28;2.10;;;;;;;;;;5043570;28;20659;-76
2024/01/30 11:38:53;;;;;;;2.53;2.33;;;;;;;-142.91;100.00;56616.03;5044331;28;20283;-76
2024/01/30 11:41:19;;;;;;;3.08;2.53;;;;;;;;;;5045226;28;20807;-77
2024/01/30 11:43:52;;;;;;;1.50;1.40;;;;;;;;;;5044645;28;20301;-79
2024/01/30 11:46:18;;;;;;;2.63;2.42;;;;;;;;;;5044136;28;20302;-80
2024/01/30 11:48:46;;;;;;;2.47;2.30;;;;;;;-142.91;100.00;56616.03;5045007;28;20249;-80
2024/01/30 11:51:13;;;;;;;2.10;2.00;;;;;;;;;;5044027;28;20740;-77
2024/01/30 11:53:40;;;;;;;2.85;2.20;;;;;;;;;;5048294;28;20290;-76
2024/01/30 11:56:07;;;;;;;4.22;2.60;;;;;;;;;;5048963;28;20876;-77
2024/01/30 11:58:33;;;;;;;2.42;2.10;;;;;;;;;;5048809;28;20302;-78
2024/01/30 12:00:59;;;;;;;2.60;2.40;;;;;;;;;;5053899;28;20312;-78
2024/01/30 12:03:26;;;;;;;2.42;2.22;;;;;;;23.27;100.00;56616.03;5053105;28;20747;-79
2024/01/30 12:05:58;;;;;;;3.17;2.92;;;;;;;;;;5058283;28;20213;-79
2024/01/30 12:08:25;;;;;;;2.53;2.33;;;;;;;;;;5060780;28;20684;-77
2024/01/30 12:10:57;;;;;;;2.47;2.25;;;;;;;-142.91;100.00;56616.03;5060315;28;20792;-80
2024/01/30 12:13:23;;;;;;;2.88;2.67;;;;;;;;;;5063270;28;20198;-79
2024/01/30 12:15:50;;;;;;;2.47;2.33;;;;;;;23.26;100.00;56616.03;5065470;28;20292;-81
2024/01/30 12:18:19;;;;;;;4.07;2.55;;;;;;;;;;5064893;28;20363;-79
2024/01/30 12:20:45;;;;;;;3.00;2.80;;;;;;;;;;5061195;28;20284;-77
2024/01/30 12:23:14;;;;;;;2.00;1.90;;;;;;;;;;5064871;28;20238;-79
2024/01/30 12:25:40;;;;;;;2.47;2.28;;;;;;;23.25;100.00;56616.03;5066269;28;20289;-80
2024/01/30 12:28:07;;;;;;;3.95;2.45;;;;;;;;;;5054438;28;21413;-80
2024/01/30 12:30:35;;;;;;;2.45;1.98;;;;;;;23.33;100.00;56616.03;5056448;28;20285;-82
2024/01/30 12:33:04;;;;;;;2.88;2.63;;;;;;;23.25;100.00;56616.03;5057056;28;20290;-81
2024/01/30 12:35:31;;;;;;;2.30;2.20;;;;;;;23.25;100.00;56616.03;5051724;28;20234;-80
2024/01/30 12:37:57;;;;;;;2.72;2.53;;;;;;;;;;5050666;28;20652;-82
2024/01/30 12:40:26;;;;;;;2.70;2.50;;;;;;;-142.91;100.00;56616.03;5057171;28;20314;-80
2024/01/30 12:42:52;;;;;;;1.40;1.40;;;;;;;;;;5058616;28;20761;-79
2024/01/30 12:45:21;;;;;;;2.20;2.10;;;;;;;-142.91;100.00;56616.03;5058967;28;20309;-79
2024/01/30 12:47:48;;;;;;;3.00;1.90;;;;;;;;;;5058141;28;20201;-77
2024/01/30 12:50:15;;;;;;;2.70;2.50;;;;;;;23.25;100.00;56616.03;5053878;28;20286;-78
2024/01/30 12:52:42;;;;;;;3.85;2.55;;;;;;;;;;5053925;28;20285;-79
2024/01/30 12:55:08;;;;;;;3.05;2.85;;;;;;;23.25;100.00;56616.03;5063762;28;20289;-80
2024/01/30 12:57:36;;;;;;;2.63;2.42;;;;;;;23.25;100.00;56616.03;5062353;28;20289;-77
2024/01/30 13:00:03;;;;;;;3.72;3.40;;;;;;;;;;5064087;28;20303;-79
2024/01/30 13:02:34;;;;;;;3.20;2.92;;;;;;;;;;5061641;28;20280;-78
2024/01/30 13:05:01;;;;;;;4.43;2.67;;;;;;;;;;5062928;28;20723;-77
2024/01/30 13:07:27;;;;;;;2.40;2.20;;;;;;;-142.91;100.00;56616.03;5063126;28;20256;-80
2024/01/30 13:09:54;;;;;;;2.33;2.15;;;;;;;-142.91;100.00;56616.03;5062463;28;20203;-81
2024/01/30 13:12:21;;;;;;;3.45;2.80;;;;;;;-142.91;100.00;56616.03;5062386;28;20285;-80
2024/01/30 13:14:49;;;;;;;3.38;3.08;;;;;;;;;;5061145;28;20213;-79